Airfield :







YOU CAN JOIN US ON...

 
LOGIN :

Register | Disclaimer

   EN    FR    IT 

 









Legend :    VFR   Marginal VFR   IFR   Intensive IFR   Very Intensive IFR
Visi :
Ceiling :
>= 8 km
>= 3000ft
5 to 8 km
1000 to 3000 ft
1500m to 5 km
500 to 1000 ft
800 to 1500m
200 to 500 ft
< 800m
< 200 ft
Symbols :   Thunderstorms  Fog  Heavy snow  Heavy precipitations  Wind > 20 kt






- Airport Elevation : 377 ft
- IATA code : YPS


CYPD - Port Hawkesbury

CURRENT METAR :
  • 172200Z AUTO 15004KT 9SM FEW070 13/12 A2938 RMK SLP954 DENSITY ALT 700FT

EXPIRED METARs :
  • 172128Z AUTO 13005KT 100V180 9SM FEW009 SCT036 BKN055 OVC073 13/13 A2938 RMK SLP951 DENSITY ALT 800FT
  • 172118Z AUTO 13005KT 6SM -RA BR SCT003 SCT013 BKN030 OVC050 13/13 A2937 RMK SLP950 DENSITY ALT 900FT
  • 172106Z AUTO 13007G16KT 120V200 3SM -RA BR BKN003 BKN010 OVC026 13/13 A2937 RMK SLP949 DENSITY ALT 900FT
  • 172031Z AUTO 13025G43KT 2 1/2SM -RA BR OVC005 13/13 A2933 RMK PRESRR SLP936 DENSITY ALT 900FT
  • 172014Z AUTO 12028G53KT 3SM -RA BR BKN005 OVC011 14/13 A2931 RMK PRESRR SLP930 DENSITY ALT 900FT
  • 172000Z AUTO 11031G46KT 1 1/2SM -RA BR OVC005 13/13 A2930 RMK PRESRR SLP925 DENSITY ALT 900FT

TAF N/A



MET'MAP, your aeronautical weather chart ! - Copyright ORBIFLY December 2007 - Disclaimer

ORBIFLY MET'MAP TEAM :

Programming & Development : Alexandra Zaïnal
Concept & Development : Baudouin d'Aumeries
Co-Development & Prog : Marc-Olivier Méhu
Technical & hardware support : Manuel Goepfert

Contact : metmap@orbifly.com




SOURCES & CREDITS :

   NOAA